Urb Guanajibo Gdns, Puerto Rico
Current Conditions -  °F | °C
As of 5:50 PM on Friday 26 Dec 2014 (Local Time) from TJBQ Reporting Station
Scattered Clouds Scattered Clouds  
Wind Chill: 77°   Ceiling: Unl
Heat Index: 79°   Visibility: 10mi
Dew Point: 70°   Wind: 15mph
Humidity: 78%   Direction: 100°E
Pressure: 30.03"   Gusts: 21mph
Location:  18.203°N, 67.14°W
Report Text: TJBQ 262150Z 10013G18KT 10SM SCT015 25/21 A3003 RMK RWY08 ATIS O
Loading
Personal Weather Stations






























Interactive Weather Map New forecast layout! Learn more

10-Day Weather Forecast

Advertisements
Track Severe Weather on mobile